createdAt,value
2023-03-10T00:01:49.428Z,27.77
2023-03-10T00:04:19.095Z,27.67
2023-03-10T00:06:47.207Z,27.97
2023-03-10T00:09:15.490Z,28.07
2023-03-10T00:11:43.583Z,28.20
2023-03-10T00:14:12.154Z,28.00
2023-03-10T00:16:40.314Z,27.83
2023-03-10T00:19:08.738Z,27.50
2023-03-10T00:21:38.433Z,27.93
2023-03-10T00:24:06.849Z,27.90
2023-03-10T00:26:34.972Z,27.53
2023-03-10T00:29:02.927Z,27.87
2023-03-10T00:31:31.636Z,27.53
2023-03-10T00:34:00.615Z,28.33
2023-03-10T00:36:33.246Z,27.57
2023-03-10T00:39:05.103Z,27.03
2023-03-10T00:41:36.619Z,28.50
2023-03-10T00:44:05.243Z,27.23
2023-03-10T00:46:38.946Z,27.17
2023-03-10T00:49:07.755Z,28.77
2023-03-10T00:51:36.739Z,27.83
2023-03-10T00:54:06.738Z,27.57
2023-03-10T00:56:35.062Z,28.23
2023-03-10T00:59:10.178Z,27.83
2023-03-10T01:01:40.761Z,27.90
2023-03-10T01:04:12.560Z,28.20
2023-03-10T01:06:41.035Z,28.67
2023-03-10T01:09:10.761Z,27.77
2023-03-10T01:11:38.876Z,28.03
2023-03-10T01:14:08.971Z,28.10
2023-03-10T01:16:37.619Z,27.07
2023-03-10T01:19:06.723Z,28.07
2023-03-10T01:21:36.967Z,27.70
2023-03-10T01:24:06.199Z,28.83
2023-03-10T01:26:36.040Z,29.47
2023-03-10T01:29:04.811Z,28.73
2023-03-10T01:31:33.089Z,28.57
2023-03-10T01:34:01.391Z,27.60
2023-03-10T01:36:31.817Z,28.17
2023-03-10T01:39:00.544Z,28.50
2023-03-10T01:41:28.786Z,27.87
2023-03-10T01:44:03.415Z,28.40
2023-03-10T01:46:42.353Z,29.57
2023-03-10T01:49:27.192Z,29.37
2023-03-10T01:52:01.555Z,28.87
2023-03-10T01:54:33.938Z,29.10
2023-03-10T01:57:02.422Z,29.27
2023-03-10T01:59:33.966Z,27.50
2023-03-10T02:02:03.991Z,29.17
2023-03-10T02:04:37.737Z,28.43
2023-03-10T02:07:08.525Z,28.70
2023-03-10T02:09:40.509Z,29.00
2023-03-10T02:12:10.652Z,27.80
2023-03-10T02:14:42.574Z,29.33
2023-03-10T02:17:13.899Z,28.40
2023-03-10T02:20:08.497Z,27.67
2023-03-10T02:22:37.823Z,28.57
2023-03-10T02:25:21.195Z,27.63
2023-03-10T02:27:53.698Z,27.83
2023-03-10T02:30:25.968Z,27.83
2023-03-10T02:33:00.206Z,28.63
2023-03-10T02:35:30.713Z,27.10
2023-03-10T02:38:02.081Z,28.00
2023-03-10T02:40:33.986Z,27.83
2023-03-10T02:43:06.985Z,27.77
2023-03-10T02:45:39.598Z,27.57
2023-03-10T02:48:09.291Z,26.23
2023-03-10T02:50:39.789Z,27.53
2023-03-10T02:53:12.867Z,27.97
2023-03-10T02:55:43.283Z,28.10
2023-03-10T02:58:13.359Z,27.30
2023-03-10T03:00:47.182Z,27.47
2023-03-10T03:03:17.909Z,26.87
2023-03-10T03:05:46.045Z,27.97
2023-03-10T03:08:15.384Z,27.17
2023-03-10T03:10:43.875Z,27.10
2023-03-10T03:13:13.634Z,27.57
2023-03-10T03:15:42.013Z,27.23
2023-03-10T03:18:13.354Z,26.83
2023-03-10T03:20:42.092Z,27.53
2023-03-10T03:23:11.537Z,26.67
2023-03-10T03:25:41.839Z,26.20
2023-03-10T03:28:15.691Z,26.73
2023-03-10T03:30:46.393Z,24.53
2023-03-10T03:33:14.705Z,26.77
2023-03-10T03:35:45.218Z,27.37
2023-03-10T03:38:13.702Z,26.30
2023-03-10T03:40:42.517Z,26.73
2023-03-10T03:43:15.046Z,27.10
2023-03-10T03:45:43.401Z,26.50
2023-03-10T03:48:14.001Z,26.87
2023-03-10T03:50:42.330Z,26.90
2023-03-10T03:53:10.407Z,26.80
2023-03-10T03:55:38.501Z,26.03
2023-03-10T03:58:06.436Z,25.77
2023-03-10T04:00:35.957Z,26.93
2023-03-10T04:03:04.583Z,26.20
2023-03-10T04:05:32.950Z,26.30
2023-03-10T04:08:01.199Z,26.03
2023-03-10T04:10:29.998Z,26.20
2023-03-10T04:12:58.770Z,25.07
2023-03-10T04:15:27.235Z,26.03
2023-03-10T04:17:58.139Z,26.67
2023-03-10T04:20:26.750Z,26.67
2023-03-10T04:22:55.023Z,26.10
2023-03-10T04:25:34.469Z,26.57
2023-03-10T04:28:03.007Z,26.13
2023-03-10T04:30:31.584Z,25.00
2023-03-10T04:41:01.442Z,26.10
2023-03-10T04:43:33.425Z,25.73
2023-03-10T04:46:02.154Z,25.17
2023-03-10T05:31:29.562Z,26.10
2023-03-10T05:33:57.717Z,26.07
2023-03-10T05:36:25.700Z,27.07
2023-03-10T05:38:53.900Z,25.87
2023-03-10T05:41:22.058Z,26.50
2023-03-10T05:43:50.532Z,26.00
2023-03-10T05:46:18.753Z,26.37
2023-03-10T05:48:48.252Z,25.43
2023-03-10T05:51:16.641Z,25.43
2023-03-10T05:53:45.037Z,25.50
2023-03-10T05:56:15.505Z,26.53
2023-03-10T05:58:43.987Z,26.33
2023-03-10T06:01:14.164Z,25.27
2023-03-10T06:03:42.729Z,26.00
2023-03-10T06:06:13.279Z,25.83
2023-03-10T06:08:43.099Z,24.57
2023-03-10T06:11:11.687Z,24.57
2023-03-10T06:13:39.871Z,25.33
2023-03-10T06:16:09.261Z,23.70
2023-03-10T06:18:37.300Z,24.00
2023-03-10T06:21:09.458Z,22.53
2023-03-10T06:23:44.459Z,22.43
2023-03-10T06:26:15.182Z,23.20
2023-03-10T06:28:45.789Z,23.47
2023-03-10T06:31:18.655Z,23.80
2023-03-10T06:33:47.203Z,23.20
2023-03-10T06:36:17.839Z,22.83
2023-03-10T06:38:48.230Z,22.23
2023-03-10T06:41:17.648Z,22.93
2023-03-10T06:43:46.526Z,22.37
2023-03-10T06:46:16.303Z,22.77
2023-03-10T06:48:46.421Z,22.37
2023-03-10T06:51:17.922Z,22.10
2023-03-10T06:53:49.517Z,22.00
2023-03-10T06:56:27.749Z,20.50
2023-03-10T06:58:57.890Z,20.73
2023-03-10T07:01:30.310Z,21.20
2023-03-10T07:04:02.810Z,21.07
2023-03-10T07:06:30.976Z,20.43
2023-03-10T07:09:00.860Z,20.23
2023-03-10T07:11:29.372Z,20.50
2023-03-10T07:13:57.847Z,20.40
2023-03-10T07:16:25.943Z,21.23
2023-03-10T07:18:53.970Z,20.53
2023-03-10T07:21:23.049Z,21.03
2023-03-10T07:23:51.631Z,20.70
2023-03-10T07:26:21.320Z,19.00
2023-03-10T07:28:49.671Z,19.70
2023-03-10T07:31:18.491Z,20.43
2023-03-10T07:33:46.710Z,19.77
2023-03-10T07:36:16.911Z,20.57
2023-03-10T07:38:45.542Z,19.80
2023-03-10T07:41:16.489Z,20.27
2023-03-10T07:43:46.233Z,19.90
2023-03-10T07:46:18.038Z,19.77
2023-03-10T07:48:46.372Z,19.50
2023-03-10T07:51:25.848Z,19.47
2023-03-10T07:53:54.407Z,19.40
2023-03-10T07:56:22.705Z,18.77
2023-03-10T07:58:52.184Z,19.33
2023-03-10T08:01:22.276Z,19.60
2023-03-10T08:03:50.483Z,19.43
2023-03-10T08:06:20.515Z,19.73
2023-03-10T08:08:48.570Z,19.30
2023-03-10T08:11:16.878Z,18.37
2023-03-10T08:13:47.726Z,19.13
2023-03-10T08:16:22.210Z,18.93
2023-03-10T08:18:51.405Z,18.90
2023-03-10T08:21:19.388Z,19.03
2023-03-10T08:23:47.685Z,19.27
2023-03-10T08:26:18.599Z,18.80
2023-03-10T08:28:47.161Z,18.97
2023-03-10T08:31:18.941Z,18.47
2023-03-10T08:33:48.193Z,18.73
2023-03-10T08:36:18.603Z,19.07
2023-03-10T08:38:49.089Z,17.90
2023-03-10T08:41:19.435Z,18.30
2023-03-10T08:43:49.458Z,18.07
2023-03-10T08:46:20.347Z,18.63
2023-03-10T08:48:51.438Z,17.90
2023-03-10T08:51:20.562Z,18.17
2023-03-10T08:53:51.589Z,18.67
2023-03-10T08:56:22.152Z,18.17
2023-03-10T08:58:59.266Z,18.73
2023-03-10T09:01:31.189Z,18.43
2023-03-10T09:04:00.199Z,17.97
2023-03-10T09:06:29.140Z,18.43
2023-03-10T09:08:57.674Z,18.17
2023-03-10T09:11:30.273Z,17.50
2023-03-10T09:13:59.750Z,17.80
2023-03-10T09:16:32.606Z,19.17
2023-03-10T09:19:01.929Z,18.83
2023-03-10T09:21:34.332Z,17.83
2023-03-10T09:24:03.232Z,17.97
2023-03-10T09:26:32.198Z,17.80
2023-03-10T09:29:00.522Z,17.40
2023-03-10T09:31:33.489Z,17.97
2023-03-10T09:34:02.161Z,17.50
2023-03-10T09:36:31.014Z,18.17
2023-03-10T09:39:00.127Z,17.77
2023-03-10T09:41:49.080Z,17.77
2023-03-10T09:44:32.200Z,17.80
2023-03-10T09:47:19.661Z,17.43
2023-03-10T09:49:56.030Z,17.53
2023-03-10T09:52:30.582Z,16.53
2023-03-10T09:55:03.704Z,16.17
2023-03-10T09:57:31.788Z,16.73
2023-03-10T10:00:05.657Z,17.20
2023-03-10T10:02:42.054Z,17.20
2023-03-10T10:05:17.343Z,17.80
2023-03-10T10:07:48.398Z,17.10
2023-03-10T10:10:19.956Z,17.17
2023-03-10T10:12:52.648Z,17.10
2023-03-10T10:15:25.583Z,17.80
2023-03-10T10:18:18.576Z,17.67
2023-03-10T10:20:51.150Z,17.63
2023-03-10T10:23:29.128Z,17.63
2023-03-10T10:26:01.560Z,17.43
2023-03-10T10:28:41.714Z,16.93
2023-03-10T10:31:16.748Z,16.87
2023-03-10T10:34:02.175Z,17.73
2023-03-10T10:36:32.989Z,16.70
2023-03-10T10:39:02.342Z,17.07
2023-03-10T10:41:32.242Z,17.43
2023-03-10T10:44:10.364Z,17.70
2023-03-10T10:46:38.800Z,17.47
2023-03-10T10:49:23.602Z,17.87
2023-03-10T10:52:01.974Z,17.70
2023-03-10T10:54:40.158Z,17.73
2023-03-10T10:57:19.652Z,17.50
2023-03-10T10:59:53.430Z,17.20
2023-03-10T11:02:34.952Z,17.87
2023-03-10T11:05:17.230Z,18.13
2023-03-10T11:07:45.903Z,17.83
2023-03-10T11:10:19.316Z,18.33
2023-03-10T11:13:09.577Z,18.13
2023-03-10T11:15:42.070Z,18.37
2023-03-10T11:18:21.594Z,18.10
2023-03-10T11:20:57.191Z,17.77
2023-03-10T11:23:32.152Z,17.47
2023-03-10T11:26:07.499Z,17.27
2023-03-10T11:28:46.575Z,16.80
2023-03-10T11:31:27.168Z,17.37
2023-03-10T11:34:04.753Z,17.57
2023-03-10T11:36:55.451Z,17.37
2023-03-10T11:39:39.264Z,17.97
2023-03-10T11:42:15.321Z,18.00
2023-03-10T11:44:52.478Z,18.00
2023-03-10T11:47:33.826Z,18.10
2023-03-10T11:50:15.208Z,18.60
2023-03-10T11:52:46.359Z,18.93
2023-03-10T11:55:21.274Z,19.57
2023-03-10T11:57:54.394Z,19.27
2023-03-10T12:00:29.580Z,19.53
2023-03-10T12:03:14.775Z,18.67
2023-03-10T12:05:51.610Z,18.07
2023-03-10T12:08:24.657Z,19.10
2023-03-10T12:10:59.158Z,19.20
2023-03-10T12:13:30.096Z,19.90
2023-03-10T12:16:01.785Z,20.40
2023-03-10T12:18:30.488Z,21.27
2023-03-10T12:21:16.794Z,20.63
2023-03-10T12:23:47.491Z,20.60
2023-03-10T12:26:16.012Z,21.10
2023-03-10T12:28:44.796Z,21.40
2023-03-10T12:31:49.066Z,21.13
2023-03-10T12:34:37.950Z,21.20
2023-03-10T12:37:10.136Z,20.80
2023-03-10T12:39:42.383Z,21.33
2023-03-10T12:43:02.362Z,22.13
2023-03-10T12:45:56.508Z,21.63
2023-03-10T12:48:25.325Z,22.03
2023-03-10T12:50:59.479Z,21.93
2023-03-10T12:53:36.032Z,21.30
2023-03-10T12:56:22.214Z,21.43
2023-03-10T12:58:57.275Z,21.40
2023-03-10T13:01:29.614Z,20.37
2023-03-10T13:04:33.975Z,21.63
2023-03-10T13:07:20.054Z,21.30
2023-03-10T13:10:06.209Z,21.17
2023-03-10T13:12:50.702Z,21.60
2023-03-10T13:15:25.063Z,21.90
2023-03-10T13:17:59.974Z,22.47
2023-03-10T13:20:29.351Z,22.53
2023-03-10T13:22:59.752Z,22.07
2023-03-10T13:25:28.654Z,22.80
2023-03-10T13:27:58.092Z,22.47
2023-03-10T13:30:28.058Z,22.90
2023-03-10T13:32:58.706Z,23.57
2023-03-10T13:35:31.340Z,23.70
2023-03-10T13:38:07.860Z,23.03
2023-03-10T13:40:37.415Z,24.60
2023-03-10T13:43:16.884Z,23.90
2023-03-10T13:45:45.181Z,23.90
2023-03-10T13:48:15.000Z,23.33
2023-03-10T13:50:43.070Z,21.77
2023-03-10T13:53:25.694Z,21.13
2023-03-10T13:55:53.857Z,21.50
2023-03-10T13:58:23.356Z,19.77
2023-03-10T14:00:54.530Z,20.77
2023-03-10T14:03:22.903Z,22.37
2023-03-10T14:05:51.536Z,22.50
2023-03-10T14:08:27.708Z,22.03
2023-03-10T14:11:11.512Z,21.67
2023-03-10T14:13:46.200Z,21.47
2023-03-10T14:16:14.912Z,21.23
2023-03-10T14:18:44.470Z,20.23
2023-03-10T14:21:33.133Z,19.77
2023-03-10T14:24:06.558Z,20.57
2023-03-10T14:26:35.142Z,20.13
2023-03-10T14:29:11.930Z,20.47
2023-03-10T14:31:39.908Z,20.87
2023-03-10T14:34:08.057Z,20.73
2023-03-10T14:36:36.152Z,20.60
2023-03-10T14:39:04.357Z,21.27
2023-03-10T14:41:32.728Z,20.03
2023-03-10T14:44:01.748Z,19.93
2023-03-10T14:46:33.138Z,20.43
2023-03-10T14:49:01.295Z,20.40
2023-03-10T14:51:35.997Z,19.53
2023-03-10T14:54:04.903Z,18.93
2023-03-10T14:56:34.439Z,19.50
2023-03-10T14:59:02.907Z,18.77
2023-03-10T15:01:32.506Z,19.03
2023-03-10T15:04:00.872Z,17.97
2023-03-10T15:06:29.100Z,16.37
2023-03-10T15:08:57.281Z,15.20
2023-03-10T15:11:36.537Z,14.93
2023-03-10T15:14:12.655Z,14.17
2023-03-10T15:16:42.949Z,13.53
2023-03-10T15:19:18.499Z,14.20
2023-03-10T15:21:46.886Z,13.97
2023-03-10T15:24:15.023Z,14.17
2023-03-10T15:27:53.433Z,14.40
2023-03-10T15:30:24.148Z,14.87
2023-03-10T15:32:57.031Z,14.10
2023-03-10T15:35:27.167Z,14.77
2023-03-10T15:37:55.643Z,14.70
2023-03-10T15:40:27.356Z,15.90
2023-03-10T15:42:57.942Z,15.90
2023-03-10T15:45:27.204Z,15.50
2023-03-10T15:47:58.192Z,16.20
2023-03-10T15:50:27.650Z,16.50
2023-03-10T15:52:58.422Z,16.53
2023-03-10T15:55:27.692Z,15.87
2023-03-10T15:57:56.703Z,16.40
2023-03-10T16:00:28.445Z,16.53
2023-03-10T16:02:59.616Z,17.03
2023-03-10T16:05:33.021Z,17.30
2023-03-10T16:08:06.821Z,16.80
2023-03-10T16:10:36.078Z,17.60
2023-03-10T16:13:19.511Z,17.37
2023-03-10T16:16:19.627Z,17.00
2023-03-10T16:18:53.232Z,16.40
2023-03-10T16:21:37.007Z,16.53
2023-03-10T16:24:08.988Z,16.03
2023-03-10T16:26:39.441Z,16.13
2023-03-10T16:29:07.988Z,14.20
2023-03-10T16:31:36.453Z,14.87
2023-03-10T16:35:18.502Z,15.90
2023-03-10T16:37:24.342Z,16.30
2023-03-10T16:39:59.789Z,16.47
2023-03-10T16:47:13.199Z,16.33
2023-03-10T16:49:44.318Z,16.47
2023-03-10T16:52:50.088Z,16.67
2023-03-10T16:55:37.534Z,17.20
2023-03-10T16:59:13.583Z,18.10
2023-03-10T17:02:02.340Z,18.40
2023-03-10T17:04:52.450Z,18.07
2023-03-10T17:07:36.369Z,17.53
2023-03-10T17:10:31.421Z,16.97
2023-03-10T17:21:10.533Z,16.43
2023-03-10T17:23:39.217Z,16.20
2023-03-10T17:26:21.075Z,17.33
2023-03-10T17:28:53.050Z,17.40
2023-03-10T17:31:36.705Z,17.23
2023-03-10T17:34:11.647Z,17.73
2023-03-10T17:36:52.158Z,16.87
2023-03-10T17:40:09.247Z,15.73
2023-03-10T17:43:36.394Z,15.87
2023-03-10T17:46:09.440Z,15.17
2023-03-10T17:53:44.762Z,16.00
2023-03-10T17:57:28.362Z,15.97
2023-03-10T18:00:02.168Z,16.07
2023-03-10T18:07:02.221Z,16.27
2023-03-10T18:17:38.537Z,19.90
2023-03-10T18:37:52.878Z,23.87
2023-03-10T18:40:24.882Z,22.90
2023-03-10T18:50:24.976Z,14.57
2023-03-10T18:53:30.422Z,15.90
2023-03-10T19:00:51.712Z,15.40
2023-03-10T19:03:34.920Z,15.40
2023-03-10T19:06:42.410Z,14.13
2023-03-10T19:12:36.427Z,12.40
2023-03-10T19:15:13.816Z,11.80
2023-03-10T19:18:38.688Z,6.10
2023-03-10T19:21:07.414Z,5.57
2023-03-10T19:24:03.137Z,4.13
2023-03-10T19:26:54.476Z,3.63
2023-03-10T19:37:22.568Z,2.30
2023-03-10T19:55:26.628Z,1.60
2023-03-10T19:57:56.567Z,2.27
2023-03-10T20:00:31.091Z,2.00
2023-03-10T20:02:59.753Z,1.83
2023-03-10T20:05:27.971Z,1.93
2023-03-10T20:07:56.138Z,1.80
2023-03-10T20:10:25.613Z,2.10
2023-03-10T20:12:53.716Z,1.70
2023-03-10T20:15:21.886Z,2.23
2023-03-10T20:17:50.003Z,1.90
2023-03-10T20:20:20.290Z,1.80
2023-03-10T20:22:50.372Z,1.60
2023-03-10T20:25:21.246Z,1.30
2023-03-10T20:27:52.935Z,2.33
2023-03-10T20:30:23.211Z,1.33
2023-03-10T20:32:51.848Z,1.60
2023-03-10T20:35:23.397Z,1.60
2023-03-10T20:37:51.584Z,1.50
2023-03-10T20:40:24.027Z,1.30
2023-03-10T20:43:00.367Z,1.80
2023-03-10T20:45:30.214Z,1.87
2023-03-10T20:47:58.659Z,1.80
2023-03-10T20:50:27.309Z,1.70
2023-03-10T20:52:58.587Z,1.73
2023-03-10T20:55:29.178Z,1.40
2023-03-10T20:58:01.714Z,1.47
2023-03-10T21:00:34.645Z,1.70
2023-03-10T21:03:02.715Z,1.90
2023-03-10T21:05:30.989Z,1.80
2023-03-10T21:07:59.216Z,1.73
2023-03-10T21:10:27.787Z,1.60
2023-03-10T21:12:56.116Z,1.80
2023-03-10T21:15:25.440Z,1.97
2023-03-10T21:17:55.066Z,1.60
2023-03-10T21:20:24.543Z,1.83
2023-03-10T21:22:54.413Z,1.63
2023-03-10T21:25:25.193Z,1.67
2023-03-10T21:28:00.159Z,1.23
2023-03-10T21:30:30.677Z,1.63
2023-03-10T21:33:00.818Z,1.57
2023-03-10T21:35:31.811Z,1.50
2023-03-10T21:37:59.903Z,2.03
2023-03-10T21:40:27.906Z,1.90
2023-03-10T21:42:55.924Z,2.03
2023-03-10T21:45:25.961Z,1.60
2023-03-10T21:47:54.165Z,1.60
2023-03-10T21:50:23.998Z,1.50
2023-03-10T21:52:52.610Z,1.40
2023-03-10T21:55:28.842Z,1.40
2023-03-10T21:57:58.353Z,1.80
2023-03-10T22:00:27.015Z,2.13
2023-03-10T22:02:55.241Z,2.13
2023-03-10T22:05:25.214Z,2.30
2023-03-10T22:07:58.138Z,1.63
2023-03-10T22:10:27.328Z,1.63
2023-03-10T22:13:04.380Z,1.77
2023-03-10T22:15:32.633Z,2.27
2023-03-10T22:18:00.796Z,1.60
2023-03-10T22:20:32.368Z,1.60
2023-03-10T22:23:01.666Z,1.70
2023-03-10T22:25:30.283Z,1.70
2023-03-10T22:27:58.465Z,1.30
2023-03-10T22:30:27.827Z,1.53
2023-03-10T22:32:56.296Z,1.63
2023-03-10T22:35:24.592Z,1.73
2023-03-10T22:37:54.802Z,1.90
2023-03-10T22:40:25.154Z,1.23
2023-03-10T22:42:53.666Z,2.47
2023-03-10T22:45:24.156Z,1.97
2023-03-10T22:47:56.719Z,1.10
2023-03-10T22:50:27.811Z,1.30
2023-03-10T22:52:57.455Z,1.50
2023-03-10T22:55:26.845Z,1.43
2023-03-10T22:57:56.528Z,1.40
2023-03-10T23:00:24.654Z,1.73
2023-03-10T23:02:53.967Z,1.57
2023-03-10T23:05:22.997Z,1.43
2023-03-10T23:07:51.872Z,1.10
2023-03-10T23:10:23.779Z,1.50
2023-03-10T23:12:52.293Z,1.50
2023-03-10T23:15:26.013Z,1.30
2023-03-10T23:17:54.743Z,1.43
2023-03-10T23:20:27.021Z,1.30
2023-03-10T23:22:56.596Z,1.30
2023-03-10T23:25:29.275Z,1.40
2023-03-10T23:27:58.142Z,1.20
2023-03-10T23:30:26.340Z,1.20
2023-03-10T23:32:54.891Z,1.07
2023-03-10T23:35:25.834Z,1.40
2023-03-10T23:37:54.318Z,1.27
2023-03-10T23:40:27.986Z,1.33
2023-03-10T23:43:01.135Z,1.00
2023-03-10T23:45:31.425Z,1.00
2023-03-10T23:48:04.813Z,1.10
2023-03-10T23:50:34.498Z,1.20
2023-03-10T23:53:02.773Z,1.07
2023-03-10T23:55:34.464Z,1.27
2023-03-10T23:58:02.707Z,1.07
